sensor_id;sensor_type;location;lat;lon;timestamp;P1;durP1;ratioP1;P2;durP2;ratioP2
51907;SDS011;39320;53.214;6.556;2023-02-28T00:00:18;3.03;;;2.72;;
51907;SDS011;39320;53.214;6.556;2023-02-28T00:02:44;6.43;;;3.00;;
51907;SDS011;39320;53.214;6.556;2023-02-28T00:05:11;3.63;;;2.42;;
51907;SDS011;39320;53.214;6.556;2023-02-28T00:07:38;3.30;;;2.20;;
51907;SDS011;39320;53.214;6.556;2023-02-28T00:10:05;4.53;;;2.50;;
51907;SDS011;39320;53.214;6.556;2023-02-28T00:12:33;4.93;;;2.15;;
51907;SDS011;39320;53.214;6.556;2023-02-28T00:14:59;3.33;;;2.50;;
51907;SDS011;39320;53.214;6.556;2023-02-28T00:17:25;4.82;;;2.28;;
51907;SDS011;39320;53.214;6.556;2023-02-28T00:19:51;3.97;;;2.65;;
51907;SDS011;39320;53.214;6.556;2023-02-28T00:22:17;3.42;;;2.90;;
51907;SDS011;39320;53.214;6.556;2023-02-28T00:24:45;3.42;;;2.55;;
51907;SDS011;39320;53.214;6.556;2023-02-28T00:27:11;5.88;;;2.50;;
51907;SDS011;39320;53.214;6.556;2023-02-28T00:29:37;3.08;;;2.25;;
51907;SDS011;39320;53.214;6.556;2023-02-28T00:32:03;4.50;;;2.53;;
51907;SDS011;39320;53.214;6.556;2023-02-28T00:34:30;3.00;;;2.58;;
51907;SDS011;39320;53.214;6.556;2023-02-28T00:36:56;2.67;;;2.10;;
51907;SDS011;39320;53.214;6.556;2023-02-28T00:39:22;3.30;;;2.17;;
51907;SDS011;39320;53.214;6.556;2023-02-28T00:41:47;3.55;;;2.00;;
51907;SDS011;39320;53.214;6.556;2023-02-28T00:44:13;2.60;;;2.00;;
51907;SDS011;39320;53.214;6.556;2023-02-28T00:46:39;3.63;;;2.10;;
51907;SDS011;39320;53.214;6.556;2023-02-28T00:49:04;3.38;;;2.33;;
51907;SDS011;39320;53.214;6.556;2023-02-28T00:51:30;2.92;;;2.35;;
51907;SDS011;39320;53.214;6.556;2023-02-28T00:53:56;3.95;;;2.30;;
51907;SDS011;39320;53.214;6.556;2023-02-28T00:56:22;2.95;;;2.30;;
51907;SDS011;39320;53.214;6.556;2023-02-28T00:58:47;3.03;;;2.28;;
51907;SDS011;39320;53.214;6.556;2023-02-28T01:01:13;3.83;;;3.17;;
51907;SDS011;39320;53.214;6.556;2023-02-28T01:03:39;2.72;;;2.05;;
51907;SDS011;39320;53.214;6.556;2023-02-28T01:06:05;3.45;;;2.20;;
51907;SDS011;39320;53.214;6.556;2023-02-28T01:08:31;3.75;;;2.20;;
51907;SDS011;39320;53.214;6.556;2023-02-28T01:10:57;2.40;;;2.13;;
51907;SDS011;39320;53.214;6.556;2023-02-28T01:13:22;3.67;;;2.13;;
51907;SDS011;39320;53.214;6.556;2023-02-28T01:15:52;2.20;;;2.00;;
51907;SDS011;39320;53.214;6.556;2023-02-28T01:18:20;2.85;;;2.10;;
51907;SDS011;39320;53.214;6.556;2023-02-28T01:20:47;3.58;;;2.28;;
51907;SDS011;39320;53.214;6.556;2023-02-28T01:23:13;2.33;;;2.00;;
51907;SDS011;39320;53.214;6.556;2023-02-28T01:25:39;3.00;;;2.20;;
51907;SDS011;39320;53.214;6.556;2023-02-28T01:28:05;2.38;;;1.88;;
51907;SDS011;39320;53.214;6.556;2023-02-28T01:30:31;2.55;;;1.90;;
51907;SDS011;39320;53.214;6.556;2023-02-28T01:32:58;2.28;;;2.03;;
51907;SDS011;39320;53.214;6.556;2023-02-28T01:35:24;3.55;;;2.03;;
51907;SDS011;39320;53.214;6.556;2023-02-28T01:37:50;3.15;;;2.33;;
51907;SDS011;39320;53.214;6.556;2023-02-28T01:40:16;4.13;;;2.22;;
51907;SDS011;39320;53.214;6.556;2023-02-28T01:42:41;2.85;;;2.20;;
51907;SDS011;39320;53.214;6.556;2023-02-28T01:47:42;5.22;;;2.28;;
51907;SDS011;39320;53.214;6.556;2023-02-28T01:50:14;3.80;;;1.80;;
51907;SDS011;39320;53.214;6.556;2023-02-28T01:52:46;2.35;;;2.10;;
51907;SDS011;39320;53.214;6.556;2023-02-28T01:55:13;2.30;;;2.00;;
51907;SDS011;39320;53.214;6.556;2023-02-28T01:57:43;3.13;;;2.08;;
51907;SDS011;39320;53.214;6.556;2023-02-28T02:00:13;2.10;;;1.77;;
51907;SDS011;39320;53.214;6.556;2023-02-28T02:02:41;3.58;;;1.90;;
51907;SDS011;39320;53.214;6.556;2023-02-28T02:05:10;2.92;;;1.77;;
51907;SDS011;39320;53.214;6.556;2023-02-28T02:07:41;3.15;;;2.17;;
51907;SDS011;39320;53.214;6.556;2023-02-28T02:10:13;4.45;;;2.10;;
51907;SDS011;39320;53.214;6.556;2023-02-28T02:15:16;2.00;;;1.77;;
51907;SDS011;39320;53.214;6.556;2023-02-28T02:17:48;2.28;;;1.75;;
51907;SDS011;39320;53.214;6.556;2023-02-28T02:25:48;2.00;;;1.70;;
51907;SDS011;39320;53.214;6.556;2023-02-28T02:31:12;2.38;;;2.17;;
51907;SDS011;39320;53.214;6.556;2023-02-28T02:34:17;1.77;;;1.63;;
51907;SDS011;39320;53.214;6.556;2023-02-28T02:37:15;3.30;;;2.13;;
51907;SDS011;39320;53.214;6.556;2023-02-28T02:39:53;1.95;;;1.80;;
51907;SDS011;39320;53.214;6.556;2023-02-28T02:42:27;2.47;;;1.60;;
51907;SDS011;39320;53.214;6.556;2023-02-28T02:45:04;3.28;;;1.92;;
51907;SDS011;39320;53.214;6.556;2023-02-28T02:47:34;3.00;;;2.53;;
51907;SDS011;39320;53.214;6.556;2023-02-28T02:50:03;3.63;;;2.25;;
51907;SDS011;39320;53.214;6.556;2023-02-28T02:52:34;3.15;;;2.80;;
51907;SDS011;39320;53.214;6.556;2023-02-28T02:55:05;3.17;;;2.28;;
51907;SDS011;39320;53.214;6.556;2023-02-28T02:57:38;3.83;;;1.88;;
51907;SDS011;39320;53.214;6.556;2023-02-28T03:00:18;2.80;;;1.87;;
51907;SDS011;39320;53.214;6.556;2023-02-28T03:02:48;3.60;;;2.13;;
51907;SDS011;39320;53.214;6.556;2023-02-28T03:05:19;3.05;;;1.70;;
51907;SDS011;39320;53.214;6.556;2023-02-28T03:07:53;3.58;;;1.85;;
51907;SDS011;39320;53.214;6.556;2023-02-28T03:10:54;3.78;;;1.88;;
51907;SDS011;39320;53.214;6.556;2023-02-28T03:18:25;2.63;;;2.42;;
51907;SDS011;39320;53.214;6.556;2023-02-28T03:21:20;3.03;;;2.70;;
51907;SDS011;39320;53.214;6.556;2023-02-28T03:23:58;2.72;;;2.53;;
51907;SDS011;39320;53.214;6.556;2023-02-28T03:26:45;3.00;;;2.80;;
51907;SDS011;39320;53.214;6.556;2023-02-28T03:29:27;5.82;;;2.90;;
51907;SDS011;39320;53.214;6.556;2023-02-28T03:32:06;3.67;;;2.95;;
51907;SDS011;39320;53.214;6.556;2023-02-28T03:34:44;3.00;;;2.78;;
51907;SDS011;39320;53.214;6.556;2023-02-28T03:37:24;2.92;;;2.70;;
51907;SDS011;39320;53.214;6.556;2023-02-28T03:39:59;3.55;;;3.25;;
51907;SDS011;39320;53.214;6.556;2023-02-28T03:42:35;3.47;;;3.10;;
51907;SDS011;39320;53.214;6.556;2023-02-28T03:45:22;4.22;;;3.63;;
51907;SDS011;39320;53.214;6.556;2023-02-28T03:47:59;4.43;;;3.83;;
51907;SDS011;39320;53.214;6.556;2023-02-28T03:50:35;4.55;;;4.15;;
51907;SDS011;39320;53.214;6.556;2023-02-28T03:55:39;4.53;;;4.22;;
51907;SDS011;39320;53.214;6.556;2023-02-28T04:01:07;3.88;;;3.58;;
51907;SDS011;39320;53.214;6.556;2023-02-28T04:03:39;4.32;;;3.92;;
51907;SDS011;39320;53.214;6.556;2023-02-28T04:06:06;3.70;;;3.40;;
51907;SDS011;39320;53.214;6.556;2023-02-28T04:08:37;4.75;;;3.78;;
51907;SDS011;39320;53.214;6.556;2023-02-28T04:11:05;4.45;;;4.03;;
51907;SDS011;39320;53.214;6.556;2023-02-28T04:13:40;4.72;;;4.10;;
51907;SDS011;39320;53.214;6.556;2023-02-28T04:16:08;4.18;;;3.72;;
51907;SDS011;39320;53.214;6.556;2023-02-28T04:18:38;5.30;;;4.10;;
51907;SDS011;39320;53.214;6.556;2023-02-28T04:21:05;4.18;;;3.67;;
51907;SDS011;39320;53.214;6.556;2023-02-28T04:23:31;4.20;;;3.90;;
51907;SDS011;39320;53.214;6.556;2023-02-28T04:25:56;4.43;;;3.83;;
51907;SDS011;39320;53.214;6.556;2023-02-28T04:28:22;4.25;;;3.85;;
51907;SDS011;39320;53.214;6.556;2023-02-28T04:30:54;3.63;;;3.33;;
51907;SDS011;39320;53.214;6.556;2023-02-28T04:33:24;3.85;;;3.55;;
51907;SDS011;39320;53.214;6.556;2023-02-28T04:36:02;3.75;;;3.25;;
51907;SDS011;39320;53.214;6.556;2023-02-28T04:38:32;3.60;;;3.30;;
51907;SDS011;39320;53.214;6.556;2023-02-28T04:41:00;3.22;;;2.92;;
51907;SDS011;39320;53.214;6.556;2023-02-28T04:43:26;3.28;;;3.08;;
51907;SDS011;39320;53.214;6.556;2023-02-28T04:45:52;3.30;;;3.00;;
51907;SDS011;39320;53.214;6.556;2023-02-28T04:48:21;3.53;;;3.22;;
51907;SDS011;39320;53.214;6.556;2023-02-28T04:50:48;3.53;;;3.22;;
51907;SDS011;39320;53.214;6.556;2023-02-28T04:53:14;3.10;;;2.90;;
51907;SDS011;39320;53.214;6.556;2023-02-28T04:55:40;3.50;;;3.20;;
51907;SDS011;39320;53.214;6.556;2023-02-28T04:58:05;3.17;;;2.97;;
51907;SDS011;39320;53.214;6.556;2023-02-28T05:00:31;5.40;;;3.13;;
51907;SDS011;39320;53.214;6.556;2023-02-28T05:03:02;3.35;;;3.00;;
51907;SDS011;39320;53.214;6.556;2023-02-28T05:05:28;3.08;;;2.88;;
51907;SDS011;39320;53.214;6.556;2023-02-28T05:07:54;3.47;;;3.05;;
51907;SDS011;39320;53.214;6.556;2023-02-28T05:10:22;3.10;;;2.90;;
51907;SDS011;39320;53.214;6.556;2023-02-28T05:12:48;3.53;;;3.22;;
51907;SDS011;39320;53.214;6.556;2023-02-28T05:15:14;2.85;;;2.65;;
51907;SDS011;39320;53.214;6.556;2023-02-28T05:17:41;3.30;;;3.00;;
51907;SDS011;39320;53.214;6.556;2023-02-28T05:20:08;3.35;;;3.10;;
51907;SDS011;39320;53.214;6.556;2023-02-28T05:22:38;3.53;;;3.22;;
51907;SDS011;39320;53.214;6.556;2023-02-28T05:25:09;3.38;;;3.08;;
51907;SDS011;39320;53.214;6.556;2023-02-28T05:27:37;3.40;;;3.10;;
51907;SDS011;39320;53.214;6.556;2023-02-28T05:30:04;3.10;;;2.90;;
51907;SDS011;39320;53.214;6.556;2023-02-28T05:32:31;3.10;;;2.90;;
51907;SDS011;39320;53.214;6.556;2023-02-28T05:34:57;3.22;;;3.03;;
51907;SDS011;39320;53.214;6.556;2023-02-28T05:37:22;3.10;;;2.80;;
51907;SDS011;39320;53.214;6.556;2023-02-28T05:39:48;3.33;;;3.10;;
51907;SDS011;39320;53.214;6.556;2023-02-28T05:42:14;4.43;;;4.03;;
51907;SDS011;39320;53.214;6.556;2023-02-28T05:44:40;4.25;;;3.83;;
51907;SDS011;39320;53.214;6.556;2023-02-28T05:47:07;3.55;;;3.25;;
51907;SDS011;39320;53.214;6.556;2023-02-28T05:49:32;3.97;;;3.58;;
51907;SDS011;39320;53.214;6.556;2023-02-28T05:51:58;5.70;;;3.95;;
51907;SDS011;39320;53.214;6.556;2023-02-28T05:54:24;4.63;;;3.83;;
51907;SDS011;39320;53.214;6.556;2023-02-28T05:56:50;3.60;;;3.30;;
51907;SDS011;39320;53.214;6.556;2023-02-28T05:59:16;4.13;;;3.83;;
51907;SDS011;39320;53.214;6.556;2023-02-28T06:01:42;4.15;;;3.85;;
51907;SDS011;39320;53.214;6.556;2023-02-28T06:04:16;4.90;;;4.40;;
51907;SDS011;39320;53.214;6.556;2023-02-28T06:06:47;4.93;;;4.22;;
51907;SDS011;39320;53.214;6.556;2023-02-28T06:09:14;4.35;;;3.88;;
51907;SDS011;39320;53.214;6.556;2023-02-28T06:11:40;4.07;;;3.78;;
51907;SDS011;39320;53.214;6.556;2023-02-28T06:14:06;5.22;;;4.15;;
51907;SDS011;39320;53.214;6.556;2023-02-28T06:16:33;4.60;;;4.20;;
51907;SDS011;39320;53.214;6.556;2023-02-28T06:19:01;5.38;;;4.18;;
51907;SDS011;39320;53.214;6.556;2023-02-28T06:21:28;5.05;;;4.65;;
51907;SDS011;39320;53.214;6.556;2023-02-28T06:23:54;4.50;;;4.20;;
51907;SDS011;39320;53.214;6.556;2023-02-28T06:26:21;3.42;;;3.13;;
51907;SDS011;39320;53.214;6.556;2023-02-28T06:28:47;4.95;;;3.78;;
51907;SDS011;39320;53.214;6.556;2023-02-28T06:31:14;3.92;;;3.63;;
51907;SDS011;39320;53.214;6.556;2023-02-28T06:33:42;4.00;;;3.70;;
51907;SDS011;39320;53.214;6.556;2023-02-28T06:36:09;4.60;;;4.30;;
51907;SDS011;39320;53.214;6.556;2023-02-28T06:38:36;4.00;;;3.60;;
51907;SDS011;39320;53.214;6.556;2023-02-28T06:41:02;3.80;;;3.50;;
51907;SDS011;39320;53.214;6.556;2023-02-28T06:43:29;3.90;;;3.60;;
51907;SDS011;39320;53.214;6.556;2023-02-28T06:45:59;3.90;;;3.60;;
51907;SDS011;39320;53.214;6.556;2023-02-28T06:48:26;4.40;;;4.00;;
51907;SDS011;39320;53.214;6.556;2023-02-28T06:51:01;3.88;;;3.53;;
51907;SDS011;39320;53.214;6.556;2023-02-28T06:53:28;4.40;;;4.05;;
51907;SDS011;39320;53.214;6.556;2023-02-28T06:55:59;6.60;;;6.00;;
51907;SDS011;39320;53.214;6.556;2023-02-28T06:58:30;4.82;;;4.35;;
51907;SDS011;39320;53.214;6.556;2023-02-28T07:00:56;4.63;;;4.22;;
51907;SDS011;39320;53.214;6.556;2023-02-28T07:03:22;5.32;;;4.65;;
51907;SDS011;39320;53.214;6.556;2023-02-28T07:05:48;4.65;;;4.25;;
51907;SDS011;39320;53.214;6.556;2023-02-28T07:08:14;5.28;;;4.78;;
51907;SDS011;39320;53.214;6.556;2023-02-28T07:10:40;4.78;;;4.35;;
51907;SDS011;39320;53.214;6.556;2023-02-28T07:13:06;7.03;;;6.43;;
51907;SDS011;39320;53.214;6.556;2023-02-28T07:15:34;5.78;;;5.28;;
51907;SDS011;39320;53.214;6.556;2023-02-28T07:18:00;5.85;;;5.35;;
51907;SDS011;39320;53.214;6.556;2023-02-28T07:20:26;5.97;;;5.47;;
51907;SDS011;39320;53.214;6.556;2023-02-28T07:22:52;5.28;;;4.88;;
51907;SDS011;39320;53.214;6.556;2023-02-28T07:25:22;4.97;;;4.57;;
51907;SDS011;39320;53.214;6.556;2023-02-28T07:27:49;6.07;;;5.32;;
51907;SDS011;39320;53.214;6.556;2023-02-28T07:30:15;5.30;;;4.80;;
51907;SDS011;39320;53.214;6.556;2023-02-28T07:32:40;5.93;;;5.43;;
51907;SDS011;39320;53.214;6.556;2023-02-28T07:35:06;5.80;;;5.20;;
51907;SDS011;39320;53.214;6.556;2023-02-28T07:37:33;6.00;;;5.50;;
51907;SDS011;39320;53.214;6.556;2023-02-28T07:40:05;5.68;;;5.18;;
51907;SDS011;39320;53.214;6.556;2023-02-28T07:42:34;5.32;;;4.90;;
51907;SDS011;39320;53.214;6.556;2023-02-28T07:45:00;6.00;;;5.47;;
51907;SDS011;39320;53.214;6.556;2023-02-28T07:47:28;5.40;;;5.00;;
51907;SDS011;39320;53.214;6.556;2023-02-28T07:49:55;5.55;;;5.15;;
51907;SDS011;39320;53.214;6.556;2023-02-28T07:52:21;5.95;;;5.43;;
51907;SDS011;39320;53.214;6.556;2023-02-28T07:54:48;7.70;;;5.20;;
51907;SDS011;39320;53.214;6.556;2023-02-28T07:57:17;5.80;;;5.30;;
51907;SDS011;39320;53.214;6.556;2023-02-28T07:59:43;5.60;;;5.20;;
51907;SDS011;39320;53.214;6.556;2023-02-28T08:02:13;5.43;;;4.93;;
51907;SDS011;39320;53.214;6.556;2023-02-28T08:04:39;5.75;;;5.25;;
51907;SDS011;39320;53.214;6.556;2023-02-28T08:07:12;5.30;;;4.80;;
51907;SDS011;39320;53.214;6.556;2023-02-28T08:09:39;5.25;;;4.80;;
51907;SDS011;39320;53.214;6.556;2023-02-28T08:12:06;5.75;;;5.25;;
51907;SDS011;39320;53.214;6.556;2023-02-28T08:14:32;5.30;;;4.90;;
51907;SDS011;39320;53.214;6.556;2023-02-28T08:16:58;5.63;;;5.10;;
51907;SDS011;39320;53.214;6.556;2023-02-28T08:19:24;5.45;;;4.95;;
51907;SDS011;39320;53.214;6.556;2023-02-28T08:21:50;5.47;;;5.03;;
51907;SDS011;39320;53.214;6.556;2023-02-28T08:24:16;5.72;;;5.18;;
51907;SDS011;39320;53.214;6.556;2023-02-28T08:26:41;6.38;;;5.40;;
51907;SDS011;39320;53.214;6.556;2023-02-28T08:29:07;5.75;;;5.25;;
51907;SDS011;39320;53.214;6.556;2023-02-28T08:31:33;5.15;;;4.63;;
51907;SDS011;39320;53.214;6.556;2023-02-28T08:34:04;5.38;;;4.88;;
51907;SDS011;39320;53.214;6.556;2023-02-28T08:36:31;5.95;;;5.45;;
51907;SDS011;39320;53.214;6.556;2023-02-28T08:38:57;5.75;;;5.18;;
51907;SDS011;39320;53.214;6.556;2023-02-28T08:41:23;6.38;;;5.88;;
51907;SDS011;39320;53.214;6.556;2023-02-28T08:43:49;8.82;;;8.10;;
51907;SDS011;39320;53.214;6.556;2023-02-28T08:46:14;7.15;;;6.55;;
51907;SDS011;39320;53.214;6.556;2023-02-28T08:48:40;7.78;;;6.13;;
51907;SDS011;39320;53.214;6.556;2023-02-28T08:51:08;6.20;;;5.68;;
51907;SDS011;39320;53.214;6.556;2023-02-28T08:53:38;5.57;;;5.07;;
51907;SDS011;39320;53.214;6.556;2023-02-28T08:56:06;5.65;;;5.15;;
51907;SDS011;39320;53.214;6.556;2023-02-28T08:58:34;5.28;;;4.88;;
51907;SDS011;39320;53.214;6.556;2023-02-28T09:01:00;5.47;;;5.03;;
51907;SDS011;39320;53.214;6.556;2023-02-28T09:03:36;5.68;;;5.18;;
51907;SDS011;39320;53.214;6.556;2023-02-28T09:06:03;6.07;;;5.50;;
51907;SDS011;39320;53.214;6.556;2023-02-28T09:08:29;5.50;;;5.00;;
51907;SDS011;39320;53.214;6.556;2023-02-28T09:10:56;5.80;;;5.30;;
51907;SDS011;39320;53.214;6.556;2023-02-28T09:13:23;5.50;;;5.03;;
51907;SDS011;39320;53.214;6.556;2023-02-28T09:15:53;5.55;;;5.05;;
51907;SDS011;39320;53.214;6.556;2023-02-28T09:18:19;5.50;;;5.00;;
51907;SDS011;39320;53.214;6.556;2023-02-28T09:20:45;5.88;;;5.28;;
51907;SDS011;39320;53.214;6.556;2023-02-28T09:23:12;5.45;;;4.95;;
51907;SDS011;39320;53.214;6.556;2023-02-28T09:25:40;5.30;;;4.90;;
51907;SDS011;39320;53.214;6.556;2023-02-28T09:28:14;5.60;;;5.10;;
51907;SDS011;39320;53.214;6.556;2023-02-28T09:30:42;5.78;;;5.25;;
51907;SDS011;39320;53.214;6.556;2023-02-28T09:33:10;5.10;;;4.70;;
51907;SDS011;39320;53.214;6.556;2023-02-28T09:35:37;5.45;;;5.03;;
51907;SDS011;39320;53.214;6.556;2023-02-28T09:38:03;6.68;;;6.07;;
51907;SDS011;39320;53.214;6.556;2023-02-28T09:40:30;5.80;;;4.97;;
51907;SDS011;39320;53.214;6.556;2023-02-28T09:42:56;7.35;;;6.65;;
51907;SDS011;39320;53.214;6.556;2023-02-28T09:48:03;7.80;;;5.75;;
51907;SDS011;39320;53.214;6.556;2023-02-28T09:50:38;5.93;;;5.43;;
51907;SDS011;39320;53.214;6.556;2023-02-28T09:53:26;6.25;;;5.65;;
51907;SDS011;39320;53.214;6.556;2023-02-28T09:56:01;6.07;;;5.47;;
51907;SDS011;39320;53.214;6.556;2023-02-28T09:58:37;5.82;;;5.30;;
51907;SDS011;39320;53.214;6.556;2023-02-28T10:01:29;5.85;;;5.35;;
51907;SDS011;39320;53.214;6.556;2023-02-28T10:04:01;5.75;;;5.25;;
51907;SDS011;39320;53.214;6.556;2023-02-28T10:06:36;6.10;;;5.60;;
51907;SDS011;39320;53.214;6.556;2023-02-28T10:09:19;5.93;;;5.35;;
51907;SDS011;39320;53.214;6.556;2023-02-28T10:11:59;5.18;;;4.78;;
51907;SDS011;39320;53.214;6.556;2023-02-28T10:14:28;6.10;;;5.60;;
51907;SDS011;39320;53.214;6.556;2023-02-28T10:16:59;5.38;;;4.97;;
51907;SDS011;39320;53.214;6.556;2023-02-28T10:19:32;5.75;;;5.25;;
51907;SDS011;39320;53.214;6.556;2023-02-28T10:22:11;6.03;;;5.50;;
51907;SDS011;39320;53.214;6.556;2023-02-28T10:24:42;4.88;;;4.40;;
51907;SDS011;39320;53.214;6.556;2023-02-28T10:27:16;5.07;;;4.68;;
51907;SDS011;39320;53.214;6.556;2023-02-28T10:29:45;6.60;;;5.05;;
51907;SDS011;39320;53.214;6.556;2023-02-28T10:32:14;5.68;;;4.90;;
51907;SDS011;39320;53.214;6.556;2023-02-28T10:34:43;4.50;;;4.10;;
51907;SDS011;39320;53.214;6.556;2023-02-28T10:37:10;5.18;;;4.68;;
51907;SDS011;39320;53.214;6.556;2023-02-28T10:39:42;4.90;;;4.07;;
51907;SDS011;39320;53.214;6.556;2023-02-28T10:42:21;5.07;;;4.57;;
51907;SDS011;39320;53.214;6.556;2023-02-28T10:48:05;5.43;;;4.93;;
51907;SDS011;39320;53.214;6.556;2023-02-28T10:50:52;4.70;;;4.30;;
51907;SDS011;39320;53.214;6.556;2023-02-28T11:03:50;4.18;;;3.88;;
51907;SDS011;39320;53.214;6.556;2023-02-28T11:08:54;4.32;;;3.50;;
51907;SDS011;39320;53.214;6.556;2023-02-28T11:11:23;4.35;;;3.05;;
51907;SDS011;39320;53.214;6.556;2023-02-28T11:13:55;4.55;;;4.07;;
51907;SDS011;39320;53.214;6.556;2023-02-28T11:16:35;3.60;;;3.30;;
51907;SDS011;39320;53.214;6.556;2023-02-28T11:19:03;3.72;;;3.42;;
51907;SDS011;39320;53.214;6.556;2023-02-28T11:21:40;3.50;;;3.20;;
51907;SDS011;39320;53.214;6.556;2023-02-28T11:24:23;3.60;;;3.10;;
51907;SDS011;39320;53.214;6.556;2023-02-28T11:27:25;3.65;;;3.35;;
51907;SDS011;39320;53.214;6.556;2023-02-28T11:29:59;3.63;;;3.05;;
51907;SDS011;39320;53.214;6.556;2023-02-28T11:32:28;3.67;;;3.38;;
51907;SDS011;39320;53.214;6.556;2023-02-28T11:37:37;3.53;;;3.22;;
51907;SDS011;39320;53.214;6.556;2023-02-28T11:40:16;3.30;;;3.00;;
51907;SDS011;39320;53.214;6.556;2023-02-28T11:45:54;3.53;;;3.20;;
51907;SDS011;39320;53.214;6.556;2023-02-28T11:48:42;3.88;;;3.63;;
51907;SDS011;39320;53.214;6.556;2023-02-28T11:51:21;3.40;;;3.17;;
51907;SDS011;39320;53.214;6.556;2023-02-28T11:54:00;3.63;;;3.33;;
51907;SDS011;39320;53.214;6.556;2023-02-28T11:56:43;4.10;;;3.70;;
51907;SDS011;39320;53.214;6.556;2023-02-28T12:04:51;3.85;;;3.55;;
51907;SDS011;39320;53.214;6.556;2023-02-28T12:15:16;3.03;;;2.83;;
51907;SDS011;39320;53.214;6.556;2023-02-28T12:31:55;3.58;;;3.00;;
51907;SDS011;39320;53.214;6.556;2023-02-28T12:37:10;3.53;;;3.17;;
51907;SDS011;39320;53.214;6.556;2023-02-28T12:39:46;3.47;;;2.75;;
51907;SDS011;39320;53.214;6.556;2023-02-28T12:42:19;3.42;;;2.80;;
51907;SDS011;39320;53.214;6.556;2023-02-28T12:45:02;4.00;;;3.42;;
51907;SDS011;39320;53.214;6.556;2023-02-28T12:48:00;3.75;;;2.90;;
51907;SDS011;39320;53.214;6.556;2023-02-28T12:50:29;4.30;;;2.83;;
51907;SDS011;39320;53.214;6.556;2023-02-28T12:58:14;3.33;;;3.03;;
51907;SDS011;39320;53.214;6.556;2023-02-28T13:06:43;4.25;;;3.40;;
51907;SDS011;39320;53.214;6.556;2023-02-28T13:09:29;3.25;;;2.95;;
51907;SDS011;39320;53.214;6.556;2023-02-28T13:11:55;3.80;;;2.95;;
51907;SDS011;39320;53.214;6.556;2023-02-28T13:14:29;3.30;;;3.00;;
51907;SDS011;39320;53.214;6.556;2023-02-28T13:19:41;3.83;;;3.42;;
51907;SDS011;39320;53.214;6.556;2023-02-28T13:22:20;2.90;;;2.65;;
51907;SDS011;39320;53.214;6.556;2023-02-28T13:27:58;4.35;;;3.95;;
51907;SDS011;39320;53.214;6.556;2023-02-28T13:38:44;3.58;;;3.28;;
51907;SDS011;39320;53.214;6.556;2023-02-28T13:44:06;3.63;;;3.33;;
51907;SDS011;39320;53.214;6.556;2023-02-28T13:49:19;3.70;;;3.40;;
51907;SDS011;39320;53.214;6.556;2023-02-28T13:57:10;3.75;;;3.25;;
51907;SDS011;39320;53.214;6.556;2023-02-28T13:59:50;4.10;;;3.70;;
51907;SDS011;39320;53.214;6.556;2023-02-28T14:05:23;3.72;;;3.42;;
51907;SDS011;39320;53.214;6.556;2023-02-28T14:07:52;3.47;;;3.17;;
51907;SDS011;39320;53.214;6.556;2023-02-28T14:10:25;3.35;;;3.05;;
51907;SDS011;39320;53.214;6.556;2023-02-28T14:18:02;3.35;;;2.72;;
51907;SDS011;39320;53.214;6.556;2023-02-28T14:20:49;3.83;;;3.40;;
51907;SDS011;39320;53.214;6.556;2023-02-28T14:31:58;3.55;;;3.25;;
51907;SDS011;39320;53.214;6.556;2023-02-28T14:34:42;3.63;;;3.10;;
51907;SDS011;39320;53.214;6.556;2023-02-28T14:37:28;3.90;;;3.60;;
51907;SDS011;39320;53.214;6.556;2023-02-28T14:39:57;3.58;;;3.33;;
51907;SDS011;39320;53.214;6.556;2023-02-28T14:42:33;3.40;;;3.10;;
51907;SDS011;39320;53.214;6.556;2023-02-28T14:45:01;4.72;;;3.85;;
51907;SDS011;39320;53.214;6.556;2023-02-28T14:47:31;5.03;;;3.17;;
51907;SDS011;39320;53.214;6.556;2023-02-28T14:49:59;3.65;;;3.35;;
51907;SDS011;39320;53.214;6.556;2023-02-28T14:52:27;4.68;;;3.55;;
51907;SDS011;39320;53.214;6.556;2023-02-28T14:55:04;4.20;;;3.80;;
51907;SDS011;39320;53.214;6.556;2023-02-28T14:57:34;4.40;;;4.10;;
51907;SDS011;39320;53.214;6.556;2023-02-28T15:00:22;3.58;;;3.28;;
51907;SDS011;39320;53.214;6.556;2023-02-28T15:02:50;4.35;;;3.80;;
51907;SDS011;39320;53.214;6.556;2023-02-28T15:05:19;4.28;;;3.88;;
51907;SDS011;39320;53.214;6.556;2023-02-28T15:07:47;3.33;;;3.03;;
51907;SDS011;39320;53.214;6.556;2023-02-28T15:10:24;4.40;;;4.00;;
51907;SDS011;39320;53.214;6.556;2023-02-28T15:12:57;3.50;;;3.20;;
51907;SDS011;39320;53.214;6.556;2023-02-28T15:18:04;3.83;;;3.53;;
51907;SDS011;39320;53.214;6.556;2023-02-28T15:20:31;4.70;;;4.30;;
51907;SDS011;39320;53.214;6.556;2023-02-28T15:22:58;4.32;;;4.03;;
51907;SDS011;39320;53.214;6.556;2023-02-28T15:25:24;4.15;;;3.80;;
51907;SDS011;39320;53.214;6.556;2023-02-28T15:27:52;4.53;;;4.10;;
51907;SDS011;39320;53.214;6.556;2023-02-28T15:30:26;4.60;;;4.20;;
51907;SDS011;39320;53.214;6.556;2023-02-28T15:35:43;4.47;;;4.07;;
51907;SDS011;39320;53.214;6.556;2023-02-28T15:40:50;4.80;;;3.17;;
51907;SDS011;39320;53.214;6.556;2023-02-28T15:43:25;4.18;;;3.83;;
51907;SDS011;39320;53.214;6.556;2023-02-28T15:45:58;3.83;;;3.53;;
51907;SDS011;39320;53.214;6.556;2023-02-28T15:48:29;3.85;;;3.45;;
51907;SDS011;39320;53.214;6.556;2023-02-28T15:51:37;4.57;;;3.65;;
51907;SDS011;39320;53.214;6.556;2023-02-28T15:54:07;3.50;;;3.20;;
51907;SDS011;39320;53.214;6.556;2023-02-28T15:56:44;3.65;;;3.35;;
51907;SDS011;39320;53.214;6.556;2023-02-28T15:59:16;3.78;;;3.47;;
51907;SDS011;39320;53.214;6.556;2023-02-28T16:01:45;3.85;;;3.55;;
51907;SDS011;39320;53.214;6.556;2023-02-28T16:04:15;4.28;;;3.88;;
51907;SDS011;39320;53.214;6.556;2023-02-28T16:09:24;3.85;;;3.55;;
51907;SDS011;39320;53.214;6.556;2023-02-28T16:11:51;4.53;;;4.13;;
51907;SDS011;39320;53.214;6.556;2023-02-28T16:14:20;4.00;;;3.55;;
51907;SDS011;39320;53.214;6.556;2023-02-28T16:16:52;4.00;;;3.63;;
51907;SDS011;39320;53.214;6.556;2023-02-28T16:19:19;3.88;;;3.55;;
51907;SDS011;39320;53.214;6.556;2023-02-28T16:21:46;3.88;;;3.58;;
51907;SDS011;39320;53.214;6.556;2023-02-28T16:24:12;4.20;;;3.80;;
51907;SDS011;39320;53.214;6.556;2023-02-28T16:26:39;3.63;;;3.33;;
51907;SDS011;39320;53.214;6.556;2023-02-28T16:29:06;3.70;;;3.40;;
51907;SDS011;39320;53.214;6.556;2023-02-28T16:31:37;3.30;;;3.00;;
51907;SDS011;39320;53.214;6.556;2023-02-28T16:34:04;3.55;;;3.20;;
51907;SDS011;39320;53.214;6.556;2023-02-28T16:36:30;3.40;;;3.17;;
51907;SDS011;39320;53.214;6.556;2023-02-28T16:38:59;4.57;;;3.25;;
51907;SDS011;39320;53.214;6.556;2023-02-28T16:41:27;3.72;;;3.42;;
51907;SDS011;39320;53.214;6.556;2023-02-28T16:43:54;3.58;;;3.28;;
51907;SDS011;39320;53.214;6.556;2023-02-28T16:46:33;4.88;;;3.67;;
51907;SDS011;39320;53.214;6.556;2023-02-28T16:49:02;4.40;;;3.80;;
51907;SDS011;39320;53.214;6.556;2023-02-28T16:51:28;4.25;;;3.88;;
51907;SDS011;39320;53.214;6.556;2023-02-28T16:53:55;3.92;;;3.63;;
51907;SDS011;39320;53.214;6.556;2023-02-28T16:56:22;3.63;;;3.33;;
51907;SDS011;39320;53.214;6.556;2023-02-28T16:58:49;4.20;;;3.80;;
51907;SDS011;39320;53.214;6.556;2023-02-28T17:01:16;5.10;;;4.70;;
51907;SDS011;39320;53.214;6.556;2023-02-28T17:03:47;4.53;;;4.13;;
51907;SDS011;39320;53.214;6.556;2023-02-28T17:06:20;4.35;;;3.90;;
51907;SDS011;39320;53.214;6.556;2023-02-28T17:08:49;4.60;;;3.90;;
51907;SDS011;39320;53.214;6.556;2023-02-28T17:11:16;4.88;;;4.47;;
51907;SDS011;39320;53.214;6.556;2023-02-28T17:13:43;4.80;;;4.40;;
51907;SDS011;39320;53.214;6.556;2023-02-28T17:16:30;5.07;;;4.20;;
51907;SDS011;39320;53.214;6.556;2023-02-28T17:18:58;4.50;;;4.10;;
51907;SDS011;39320;53.214;6.556;2023-02-28T17:21:27;4.22;;;3.83;;
51907;SDS011;39320;53.214;6.556;2023-02-28T17:23:53;5.90;;;5.35;;
51907;SDS011;39320;53.214;6.556;2023-02-28T17:26:20;4.88;;;4.47;;
51907;SDS011;39320;53.214;6.556;2023-02-28T17:28:47;4.53;;;3.95;;